createdAt,value
2023-05-13T00:00:24.907Z,18.40
2023-05-13T00:02:52.514Z,18.50
2023-05-13T00:05:19.831Z,18.40
2023-05-13T00:07:47.193Z,18.30
2023-05-13T00:10:14.343Z,18.40
2023-05-13T00:12:41.415Z,18.30
2023-05-13T00:15:08.993Z,18.40
2023-05-13T00:17:35.976Z,18.40
2023-05-13T00:20:03.105Z,18.30
2023-05-13T00:22:30.509Z,18.40
2023-05-13T00:24:57.486Z,18.50
2023-05-13T00:27:24.532Z,18.50
2023-05-13T00:29:51.553Z,18.60
2023-05-13T00:32:18.722Z,18.40
2023-05-13T00:34:45.726Z,18.40
2023-05-13T00:37:14.282Z,18.30
2023-05-13T00:39:42.136Z,18.30
2023-05-13T00:42:12.302Z,18.40
2023-05-13T00:44:39.408Z,18.20
2023-05-13T00:47:06.660Z,19.10
2023-05-13T00:49:34.299Z,18.60
2023-05-13T00:52:02.316Z,18.50
2023-05-13T00:54:30.237Z,18.40
2023-05-13T00:56:58.370Z,18.40
2023-05-13T00:59:27.946Z,18.60
2023-05-13T01:02:30.014Z,18.70
2023-05-13T01:05:29.909Z,18.60
2023-05-13T01:08:01.711Z,18.60
2023-05-13T01:10:35.913Z,18.30
2023-05-13T01:13:10.279Z,18.40
2023-05-13T01:15:46.325Z,18.70
2023-05-13T01:18:19.372Z,18.80
2023-05-13T01:20:46.720Z,18.80
2023-05-13T01:23:13.885Z,18.90
2023-05-13T01:25:41.716Z,18.90
2023-05-13T01:28:09.840Z,19.00
2023-05-13T01:30:37.251Z,18.80
2023-05-13T01:33:05.194Z,18.80
2023-05-13T01:35:32.689Z,18.90
2023-05-13T01:38:02.647Z,19.20
2023-05-13T01:40:32.417Z,19.10
2023-05-13T01:43:00.857Z,19.00
2023-05-13T01:45:32.347Z,18.80
2023-05-13T01:47:59.736Z,18.80
2023-05-13T01:50:27.139Z,18.70
2023-05-13T01:52:54.634Z,18.80
2023-05-13T01:55:21.577Z,18.90
2023-05-13T01:57:48.576Z,18.80
2023-05-13T02:00:16.154Z,18.50
2023-05-13T02:02:43.207Z,18.60
2023-05-13T02:05:10.269Z,18.60
2023-05-13T02:07:37.589Z,18.80
2023-05-13T02:10:05.120Z,18.90
2023-05-13T02:12:32.140Z,19.00
2023-05-13T02:14:59.351Z,19.30
2023-05-13T02:17:26.350Z,19.20
2023-05-13T02:19:53.331Z,19.20
2023-05-13T02:22:20.468Z,19.40
2023-05-13T02:24:48.972Z,19.50
2023-05-13T02:27:16.637Z,19.40
2023-05-13T02:29:43.771Z,19.30
2023-05-13T02:32:10.961Z,19.30
2023-05-13T02:34:38.063Z,19.30
2023-05-13T02:37:06.158Z,19.20
2023-05-13T02:39:33.198Z,19.20
2023-05-13T02:42:00.395Z,19.10
2023-05-13T02:44:27.643Z,19.00
2023-05-13T02:46:54.609Z,19.20
2023-05-13T02:49:21.768Z,19.20
2023-05-13T02:51:48.864Z,19.30
2023-05-13T02:54:15.983Z,19.30
2023-05-13T02:56:42.923Z,19.40
2023-05-13T02:59:09.940Z,19.30
2023-05-13T03:01:37.019Z,19.10
2023-05-13T03:04:04.628Z,19.20
2023-05-13T03:06:32.276Z,19.10
2023-05-13T03:08:59.400Z,19.10
2023-05-13T03:11:26.923Z,19.30
2023-05-13T03:13:55.308Z,19.30
2023-05-13T03:16:22.716Z,19.30
2023-05-13T03:18:49.968Z,18.90
2023-05-13T03:21:17.638Z,18.80
2023-05-13T03:23:44.627Z,18.90
2023-05-13T03:26:11.736Z,18.80
2023-05-13T03:28:38.755Z,19.00
2023-05-13T03:31:07.697Z,19.10
2023-05-13T03:33:34.737Z,19.10
2023-05-13T03:36:01.763Z,19.00
2023-05-13T03:38:29.420Z,19.00
2023-05-13T03:40:56.690Z,19.30
2023-05-13T03:43:23.778Z,19.50
2023-05-13T03:45:51.716Z,19.60
2023-05-13T03:48:19.835Z,19.70
2023-05-13T03:50:46.913Z,19.70
2023-05-13T03:53:13.839Z,19.60
2023-05-13T03:55:41.223Z,19.50
2023-05-13T03:58:13.564Z,19.60
2023-05-13T04:00:40.961Z,19.50
2023-05-13T04:03:08.021Z,19.60
2023-05-13T04:05:35.241Z,19.70
2023-05-13T04:08:02.459Z,19.90
2023-05-13T04:10:29.474Z,19.80
2023-05-13T04:12:57.886Z,19.70
2023-05-13T04:15:24.942Z,19.50
2023-05-13T04:17:54.224Z,19.50
2023-05-13T04:20:21.556Z,19.20
2023-05-13T04:22:48.994Z,19.10
2023-05-13T04:25:16.227Z,19.00
2023-05-13T04:27:44.038Z,18.70
2023-05-13T04:30:11.609Z,18.70
2023-05-13T04:32:39.318Z,18.70
2023-05-13T04:35:08.244Z,18.60
2023-05-13T04:37:35.300Z,18.50
2023-05-13T04:40:02.410Z,18.80
2023-05-13T04:42:29.600Z,18.50
2023-05-13T04:44:56.800Z,18.40
2023-05-13T04:47:23.856Z,18.60
2023-05-13T04:49:50.855Z,18.30
2023-05-13T04:52:18.112Z,18.20
2023-05-13T04:54:45.159Z,18.30
2023-05-13T04:57:12.151Z,18.30
2023-05-13T04:59:39.268Z,18.30
2023-05-13T05:02:06.472Z,18.30
2023-05-13T05:04:33.582Z,18.40
2023-05-13T05:07:00.760Z,18.20
2023-05-13T05:09:28.521Z,18.20
2023-05-13T05:11:55.584Z,18.40
2023-05-13T05:14:22.674Z,18.50
2023-05-13T05:16:49.696Z,18.10
2023-05-13T05:19:16.882Z,18.20
2023-05-13T05:21:44.006Z,18.20
2023-05-13T05:24:11.119Z,18.20
2023-05-13T05:26:38.094Z,18.00
2023-05-13T05:29:05.171Z,18.20
2023-05-13T05:31:32.475Z,18.30
2023-05-13T05:34:01.095Z,18.10
2023-05-13T05:36:29.452Z,18.10
2023-05-13T05:38:58.158Z,18.40
2023-05-13T05:41:25.641Z,18.00
2023-05-13T05:43:53.598Z,18.10
2023-05-13T05:46:20.726Z,18.00
2023-05-13T05:48:49.953Z,18.10
2023-05-13T05:51:16.941Z,18.00
2023-05-13T05:53:44.041Z,17.70
2023-05-13T05:56:13.837Z,17.70
2023-05-13T05:58:42.357Z,17.60
2023-05-13T06:01:09.334Z,18.00
2023-05-13T06:03:36.423Z,17.50
2023-05-13T06:06:03.738Z,17.50
2023-05-13T06:08:31.095Z,17.90
2023-05-13T06:10:58.720Z,17.90
2023-05-13T06:13:26.373Z,18.00
2023-05-13T06:15:53.456Z,17.90
2023-05-13T06:18:21.085Z,18.00
2023-05-13T06:20:48.181Z,17.10
2023-05-13T06:23:15.195Z,17.10
2023-05-13T06:25:44.679Z,17.20
2023-05-13T06:28:12.368Z,17.70
2023-05-13T06:30:39.728Z,18.10
2023-05-13T06:33:08.379Z,17.20
2023-05-13T06:35:35.469Z,17.60
2023-05-13T06:38:02.530Z,17.60
2023-05-13T06:40:29.578Z,17.50
2023-05-13T06:42:56.614Z,17.30
2023-05-13T06:45:25.965Z,16.70
2023-05-13T06:47:53.817Z,17.10
2023-05-13T06:50:24.127Z,16.50
2023-05-13T06:52:51.467Z,16.50
2023-05-13T06:55:19.487Z,16.40
2023-05-13T06:57:47.479Z,16.20
2023-05-13T07:00:15.593Z,15.60
2023-05-13T07:02:42.815Z,16.00
2023-05-13T07:05:11.562Z,15.20
2023-05-13T07:07:39.076Z,15.50
2023-05-13T07:10:07.197Z,15.70
2023-05-13T07:12:34.237Z,15.90
2023-05-13T07:15:01.385Z,16.00
2023-05-13T07:17:28.790Z,15.20
2023-05-13T07:19:56.877Z,16.00
2023-05-13T07:22:24.806Z,15.50
2023-05-13T07:24:51.839Z,15.20
2023-05-13T07:27:18.858Z,14.50
2023-05-13T07:29:46.056Z,14.30
2023-05-13T07:32:15.622Z,14.40
2023-05-13T07:34:42.875Z,14.50
2023-05-13T07:37:10.049Z,14.40
2023-05-13T07:39:37.130Z,14.80
2023-05-13T07:42:04.482Z,14.10
2023-05-13T07:44:31.534Z,13.60
2023-05-13T07:46:58.588Z,13.90
2023-05-13T07:49:25.732Z,13.80
2023-05-13T07:51:52.806Z,13.90
2023-05-13T07:54:19.947Z,13.90
2023-05-13T07:56:48.258Z,13.40
2023-05-13T07:59:15.361Z,13.20
2023-05-13T08:01:43.049Z,13.70
2023-05-13T08:04:10.344Z,13.20
2023-05-13T08:06:37.640Z,14.40
2023-05-13T08:09:05.168Z,13.90
2023-05-13T08:11:32.216Z,13.60
2023-05-13T08:14:00.988Z,13.60
2023-05-13T08:16:28.136Z,13.20
2023-05-13T08:18:55.586Z,13.60
2023-05-13T08:21:22.713Z,12.70
2023-05-13T08:23:52.650Z,12.60
2023-05-13T08:26:19.820Z,12.40
2023-05-13T08:28:48.030Z,12.50
2023-05-13T08:31:15.603Z,12.60
2023-05-13T08:33:45.123Z,12.30
2023-05-13T08:36:15.839Z,12.80
2023-05-13T08:38:44.663Z,12.60
2023-05-13T08:41:15.575Z,12.60
2023-05-13T08:43:47.894Z,12.70
2023-05-13T08:46:17.243Z,12.80
2023-05-13T08:48:44.912Z,12.80
2023-05-13T08:51:12.558Z,12.60
2023-05-13T08:53:41.185Z,12.80
2023-05-13T08:56:13.400Z,13.50
2023-05-13T08:58:41.378Z,13.60
2023-05-13T09:01:08.546Z,13.10
2023-05-13T09:03:36.314Z,13.50
2023-05-13T09:06:03.699Z,13.20
2023-05-13T09:08:32.696Z,13.20
2023-05-13T09:10:59.990Z,13.10
2023-05-13T09:13:27.002Z,13.20
2023-05-13T09:15:54.354Z,13.40
2023-05-13T09:18:21.653Z,13.20
2023-05-13T09:20:48.802Z,13.40
2023-05-13T09:23:16.131Z,13.50
2023-05-13T09:25:43.704Z,13.50
2023-05-13T09:28:15.551Z,13.20
2023-05-13T09:30:45.649Z,13.60
2023-05-13T09:33:20.063Z,13.20
2023-05-13T09:35:53.090Z,12.90
2023-05-13T09:38:29.100Z,12.90
2023-05-13T09:40:58.038Z,13.10
2023-05-13T09:43:31.663Z,13.50
2023-05-13T09:46:03.530Z,13.50
2023-05-13T09:48:34.126Z,13.60
2023-05-13T09:51:01.194Z,14.00
2023-05-13T09:53:28.746Z,14.20
2023-05-13T09:55:57.646Z,14.20
2023-05-13T09:58:25.916Z,14.30
2023-05-13T10:00:53.102Z,14.80
2023-05-13T10:03:20.186Z,14.60
2023-05-13T10:05:49.152Z,14.70
2023-05-13T10:08:17.751Z,14.70
2023-05-13T10:10:46.679Z,14.80
2023-05-13T10:13:20.619Z,14.20
2023-05-13T10:15:55.360Z,14.30
2023-05-13T10:18:24.125Z,14.60
2023-05-13T10:20:53.948Z,14.90
2023-05-13T10:23:24.973Z,15.00
2023-05-13T10:25:55.432Z,14.90
2023-05-13T10:28:22.715Z,14.30
2023-05-13T10:30:52.940Z,14.30
2023-05-13T10:33:21.048Z,14.80
2023-05-13T10:36:01.877Z,14.90
2023-05-13T10:39:10.526Z,14.70
2023-05-13T10:42:09.213Z,14.60
2023-05-13T10:44:36.510Z,14.80
2023-05-13T10:47:04.053Z,15.20
2023-05-13T10:49:35.112Z,15.80
2023-05-13T10:52:12.767Z,14.80
2023-05-13T10:54:42.329Z,15.20
2023-05-13T10:57:10.049Z,14.70
2023-05-13T10:59:38.810Z,14.40
2023-05-13T11:02:32.586Z,14.40
2023-05-13T11:05:01.082Z,14.30
2023-05-13T11:07:29.974Z,14.70
2023-05-13T11:09:57.069Z,15.00
2023-05-13T11:12:24.305Z,15.20
2023-05-13T11:14:56.288Z,14.80
2023-05-13T11:17:23.289Z,15.00
2023-05-13T11:19:51.775Z,14.50
2023-05-13T11:22:22.416Z,14.10
2023-05-13T11:25:04.914Z,13.70
2023-05-13T11:27:42.090Z,13.90
2023-05-13T11:30:22.158Z,13.60
2023-05-13T11:32:52.678Z,14.20
2023-05-13T11:35:27.572Z,14.90
2023-05-13T11:37:59.975Z,14.60
2023-05-13T11:40:30.612Z,14.60
2023-05-13T11:42:59.047Z,13.60
2023-05-13T11:45:27.857Z,14.10
2023-05-13T11:47:56.139Z,14.10
2023-05-13T11:50:24.403Z,14.60
2023-05-13T11:53:03.109Z,14.80
2023-05-13T11:55:32.728Z,15.00
2023-05-13T11:58:00.555Z,15.40
2023-05-13T12:00:29.517Z,15.70
2023-05-13T12:02:57.630Z,15.10
2023-05-13T12:05:25.570Z,14.40
2023-05-13T12:07:58.112Z,13.60
2023-05-13T12:10:26.204Z,13.90
2023-05-13T12:12:54.044Z,13.90
2023-05-13T12:15:22.962Z,14.70
2023-05-13T12:17:50.553Z,14.80
2023-05-13T12:20:22.435Z,14.80
2023-05-13T12:22:52.782Z,15.10
2023-05-13T12:25:39.918Z,16.00
2023-05-13T12:34:08.633Z,15.30
2023-05-13T12:36:39.378Z,15.30
2023-05-13T12:44:53.360Z,13.80
2023-05-13T12:47:23.197Z,14.20
2023-05-13T12:50:02.649Z,14.80
2023-05-13T12:52:29.605Z,14.90
2023-05-13T12:54:56.600Z,15.70
2023-05-13T12:57:24.510Z,15.60
2023-05-13T12:59:51.508Z,16.30
2023-05-13T13:02:18.447Z,16.00
2023-05-13T13:04:45.552Z,15.20
2023-05-13T13:07:14.805Z,14.80
2023-05-13T13:09:41.822Z,14.80
2023-05-13T13:12:08.861Z,14.40
2023-05-13T13:14:36.064Z,14.10
2023-05-13T13:17:03.059Z,14.30
2023-05-13T13:19:29.988Z,14.50
2023-05-13T13:21:57.120Z,14.70
2023-05-13T13:24:24.138Z,14.90
2023-05-13T13:26:51.187Z,14.80
2023-05-13T13:29:18.253Z,15.40
2023-05-13T13:31:46.060Z,15.80
2023-05-13T13:34:13.674Z,15.80
2023-05-13T13:36:40.900Z,16.90
2023-05-13T13:39:07.866Z,16.20
2023-05-13T13:41:34.828Z,15.70
2023-05-13T13:44:01.807Z,16.40
2023-05-13T13:46:28.929Z,16.40
2023-05-13T13:48:56.029Z,15.10
2023-05-13T13:51:23.164Z,15.60
2023-05-13T13:53:50.721Z,15.30
2023-05-13T13:56:17.871Z,15.40
2023-05-13T13:58:44.905Z,15.60
2023-05-13T14:01:11.904Z,15.80
2023-05-13T14:03:39.208Z,15.90
2023-05-13T14:06:06.496Z,15.80
2023-05-13T14:08:33.959Z,15.80
2023-05-13T14:11:00.922Z,15.90
2023-05-13T14:13:27.959Z,16.40
2023-05-13T14:15:54.981Z,16.40
2023-05-13T14:18:22.938Z,16.40
2023-05-13T14:20:50.819Z,16.60
2023-05-13T14:23:18.788Z,16.20
2023-05-13T14:25:46.540Z,15.50
2023-05-13T14:33:59.471Z,14.70
2023-05-13T14:36:26.962Z,14.60
2023-05-13T14:38:54.669Z,14.00
2023-05-13T14:41:22.797Z,13.20
2023-05-13T14:43:49.902Z,13.60
2023-05-13T14:46:17.327Z,13.80
2023-05-13T15:08:44.187Z,13.90
2023-05-13T15:11:11.168Z,13.90
2023-05-13T15:13:39.361Z,14.00
2023-05-13T15:16:07.391Z,13.80
2023-05-13T15:18:34.494Z,14.30
2023-05-13T15:21:01.468Z,14.50
2023-05-13T15:29:11.762Z,15.00
2023-05-13T15:31:38.717Z,15.30
2023-05-13T15:34:05.699Z,15.50
2023-05-13T15:36:35.545Z,15.50
2023-05-13T15:39:02.822Z,16.10
2023-05-13T15:41:30.143Z,16.00
2023-05-13T15:43:57.189Z,16.40
2023-05-13T15:46:24.407Z,16.40
2023-05-13T15:48:51.452Z,16.80
2023-05-13T15:51:18.526Z,17.00
2023-05-13T15:53:45.640Z,17.00
2023-05-13T15:56:12.689Z,16.90
2023-05-13T15:58:39.700Z,17.20
2023-05-13T16:01:06.681Z,16.70
2023-05-13T16:03:33.647Z,16.70
2023-05-13T16:06:00.765Z,16.90
2023-05-13T16:08:27.926Z,16.40
2023-05-13T16:10:54.954Z,17.10
2023-05-13T16:13:23.901Z,16.60
2023-05-13T16:15:53.827Z,17.00
2023-05-13T16:18:20.873Z,16.90
2023-05-13T16:20:48.026Z,17.00
2023-05-13T16:23:15.210Z,17.20
2023-05-13T16:25:43.424Z,17.10
2023-05-13T16:28:11.058Z,17.00
2023-05-13T16:30:38.837Z,17.00
2023-05-13T16:33:06.082Z,17.00
2023-05-13T16:35:34.452Z,16.80
2023-05-13T16:38:01.576Z,17.30
2023-05-13T16:40:28.554Z,17.30
2023-05-13T16:42:58.009Z,17.40
2023-05-13T16:45:26.420Z,17.00
2023-05-13T16:47:53.495Z,16.70
2023-05-13T16:50:20.898Z,16.60
2023-05-13T16:52:48.040Z,16.40
2023-05-13T16:55:15.301Z,16.30
2023-05-13T16:57:42.368Z,16.30
2023-05-13T17:00:10.021Z,16.60
2023-05-13T17:02:37.170Z,16.40
2023-05-13T17:05:04.838Z,16.50
2023-05-13T17:07:31.899Z,16.30
2023-05-13T17:09:59.211Z,16.00
2023-05-13T17:12:27.346Z,16.30
2023-05-13T17:14:54.286Z,16.90
2023-05-13T17:17:21.408Z,17.20
2023-05-13T17:19:49.197Z,17.20
2023-05-13T17:22:16.155Z,17.40
2023-05-13T17:24:43.216Z,17.40
2023-05-13T17:27:10.775Z,17.40
2023-05-13T17:29:37.789Z,17.40
2023-05-13T17:32:05.193Z,17.90
2023-05-13T17:34:32.223Z,18.00
2023-05-13T17:36:59.263Z,17.90
2023-05-13T17:39:26.360Z,18.20
2023-05-13T17:41:53.366Z,18.00
2023-05-13T17:44:20.584Z,17.80
2023-05-13T17:46:47.693Z,17.70
2023-05-13T17:49:14.773Z,17.60
2023-05-13T17:51:42.190Z,17.20
2023-05-13T17:54:11.487Z,17.00
2023-05-13T17:56:38.460Z,16.80
2023-05-13T17:59:05.559Z,16.90
2023-05-13T18:01:32.576Z,17.10
2023-05-13T18:03:59.632Z,16.90
2023-05-13T18:06:26.674Z,16.90
2023-05-13T18:08:54.203Z,16.90
2023-05-13T18:11:22.211Z,17.10
2023-05-13T18:13:49.128Z,17.40
2023-05-13T18:16:19.407Z,17.50
2023-05-13T18:18:48.684Z,17.40
2023-05-13T18:21:16.181Z,17.10
2023-05-13T18:23:45.877Z,17.20
2023-05-13T18:26:12.886Z,17.50
2023-05-13T18:28:44.899Z,17.60
2023-05-13T18:31:12.114Z,17.80
2023-05-13T18:33:39.171Z,17.50
2023-05-13T18:36:06.640Z,17.50
2023-05-13T18:38:33.679Z,17.50
2023-05-13T18:41:03.349Z,17.60
2023-05-13T18:43:30.689Z,17.80
2023-05-13T18:45:58.226Z,17.70
2023-05-13T18:48:25.460Z,17.50
2023-05-13T18:50:53.182Z,17.50
2023-05-13T18:53:20.376Z,17.70
2023-05-13T18:55:47.404Z,17.40
2023-05-13T18:58:14.617Z,17.40
2023-05-13T19:00:41.984Z,17.90
2023-05-13T19:03:09.143Z,18.20
2023-05-13T19:05:36.483Z,18.50
2023-05-13T19:08:03.731Z,18.80
2023-05-13T19:10:31.102Z,19.10
2023-05-13T19:13:00.217Z,19.30
2023-05-13T19:15:27.274Z,19.30
2023-05-13T19:17:54.361Z,19.30
2023-05-13T19:20:21.593Z,19.20
2023-05-13T19:22:48.834Z,19.40
2023-05-13T19:25:16.017Z,19.30
2023-05-13T19:27:43.606Z,19.20
2023-05-13T19:30:11.259Z,19.10
2023-05-13T19:32:38.249Z,19.10
2023-05-13T19:35:05.686Z,19.00
2023-05-13T19:37:32.777Z,19.30
2023-05-13T19:39:59.944Z,19.00
2023-05-13T19:42:26.954Z,18.90
2023-05-13T19:44:54.043Z,18.80
2023-05-13T19:47:21.093Z,18.60
2023-05-13T19:49:48.240Z,18.60
2023-05-13T19:52:15.288Z,18.20
2023-05-13T19:54:42.393Z,18.10
2023-05-13T19:57:09.334Z,18.20
2023-05-13T19:59:39.481Z,18.10
2023-05-13T20:02:06.601Z,18.10
2023-05-13T20:04:33.670Z,18.00
2023-05-13T20:07:00.785Z,18.10
2023-05-13T20:09:27.895Z,18.20
2023-05-13T20:11:54.905Z,18.20
2023-05-13T20:14:29.005Z,18.70
2023-05-13T20:16:56.232Z,18.80
2023-05-13T20:19:23.409Z,18.60
2023-05-13T20:21:50.609Z,18.60
2023-05-13T20:24:17.545Z,18.60
2023-05-13T20:26:44.660Z,18.90
2023-05-13T20:29:12.702Z,19.50
2023-05-13T20:31:42.961Z,19.90
2023-05-13T20:34:10.047Z,20.10
2023-05-13T20:36:40.458Z,20.50
2023-05-13T20:39:07.986Z,20.40
2023-05-13T20:41:35.162Z,20.00
2023-05-13T22:30:46.709Z,20.20
2023-05-13T22:33:13.805Z,20.30
2023-05-13T22:35:40.765Z,20.30
2023-05-13T22:38:07.837Z,20.60
2023-05-13T22:40:34.883Z,20.70
2023-05-13T22:43:01.913Z,20.70
2023-05-13T22:45:30.943Z,21.00
2023-05-13T22:47:58.019Z,20.70
2023-05-13T22:50:25.301Z,20.70
2023-05-13T22:52:52.517Z,20.60
2023-05-13T22:55:19.629Z,20.90
2023-05-13T22:57:46.598Z,20.80
2023-05-13T23:00:14.273Z,20.30
2023-05-13T23:02:41.553Z,20.30
2023-05-13T23:05:10.138Z,20.20
2023-05-13T23:07:37.208Z,20.20
2023-05-13T23:10:04.439Z,20.30
2023-05-13T23:12:31.447Z,20.10
2023-05-13T23:14:58.454Z,20.20
2023-05-13T23:17:25.802Z,20.30
2023-05-13T23:19:52.913Z,20.60
2023-05-13T23:22:19.951Z,20.70
2023-05-13T23:24:46.927Z,20.60
2023-05-13T23:27:13.916Z,20.60
2023-05-13T23:29:41.741Z,20.20
2023-05-13T23:32:09.186Z,19.90
2023-05-13T23:34:36.274Z,19.70
2023-05-13T23:37:03.329Z,19.70
2023-05-13T23:39:30.293Z,19.50
2023-05-13T23:41:57.307Z,19.50
2023-05-13T23:44:24.248Z,19.40
2023-05-13T23:46:51.268Z,19.30
2023-05-13T23:49:18.218Z,19.50
2023-05-13T23:51:45.208Z,19.50
2023-05-13T23:54:12.317Z,19.60
2023-05-13T23:56:39.525Z,19.50
2023-05-13T23:59:06.567Z,19.50
